Madison, AL

12:28 AM CDT on April 28, 2015 (GMT -0500)
Redstone Army Air Field | | Change Station
CLOSE
Current Station
Airport
Location: Redstone Arsenal,
Elevation: 686 ft
Nearby Weather Stations

Elev 686 ft 34.68 °N, 86.68 °W | Updated 30 minutes ago

Partly Cloudy
Partly Cloudy
56 °F
Feels Like 56 °F
N
10
Wind Variable Wind from NE

Today
High -- | Low -- °F
--% Chance of Precip.
Yesterday
High -- | Low -- °F
Precip. -- in
6:00 AM 7:29 PM
Waxing Gibbous, 71% visible
Pressure 29.93 in
Visibility 10.0 miles
Clouds Clear
Dew Point 40 °F
Humidity 56%
Rainfall 0.00 in
Snow Depth Not available.
UV 0 out of 12
Pollen 8.30 out of 12
Air Quality Not available.
Flu Activity No Activity
METAR KHUA 280458Z AUTO 04009KT 10SM CLR 13/04 A2993 RMK AO2 SLP134 T01310044

More Conditions Fewer Conditions

Pressure 29.93 in
Visibility 10.0 miles
Clouds Clear
Dew Point 40 °F
Humidity 56%
Rainfall 0.00 in
Snow Depth Not available.
UV 0 out of 12
Pollen 8.30 out of 12
Air Quality Not available.
Flu Activity No Activity
METAR KHUA 280458Z AUTO 04009KT 10SM CLR 13/04 A2993 RMK AO2 SLP134 T01310044

More Conditions Fewer Conditions

10-Day Weather Forecast

Almanac

Astronomy

Apr. 28, 2015 Rise Set
Actual Time
Civil Twilight
Nautical Twilight
Astronomical Twilight
Moon
Length of Visible Light
Length of Day
Tomorrow will be .
, % of the Moon is Illuminated

Today's Extremes

State Highs State Lows

Community

WunderPhotos

Upload Photos

1,817,584 photos uploaded!

WunderBlogs® & News

Nearby

Air Quality

  Air Quality AQ Index Pollutant
Not available.

Snow Depth

Station Depth Elevation

Earthquake Activity

City Distance Mag. Time & Date
Minimum magnitude displayed is 2.5.

Coastal Water Temperatures

Place Temperature

Stations

Nearby Weather Stations

Station Location Temp. Windchill Dew Point Humidity Wind Precip. Elev Updated Type